createdAt,value
2022-09-02T00:02:05.083Z,1.40
2022-09-02T00:04:33.647Z,1.13
2022-09-02T00:07:02.926Z,1.27
2022-09-02T00:09:30.781Z,1.50
2022-09-02T00:11:59.078Z,1.40
2022-09-02T00:14:29.558Z,1.30
2022-09-02T00:17:00.570Z,1.40
2022-09-02T00:19:30.201Z,1.07
2022-09-02T00:21:59.603Z,1.37
2022-09-02T00:24:29.041Z,1.30
2022-09-02T00:26:57.126Z,1.77
2022-09-02T00:29:25.327Z,1.20
2022-09-02T00:31:53.365Z,1.07
2022-09-02T00:34:21.697Z,1.37
2022-09-02T00:36:49.623Z,1.20
2022-09-02T00:39:17.457Z,1.30
2022-09-02T00:41:46.994Z,1.37
2022-09-02T00:44:17.412Z,1.30
2022-09-02T00:46:45.657Z,1.20
2022-09-02T00:49:17.023Z,1.17
2022-09-02T00:51:49.121Z,1.50
2022-09-02T00:54:20.062Z,1.10
2022-09-02T00:56:53.907Z,1.20
2022-09-02T00:59:28.752Z,1.10
2022-09-02T01:01:56.877Z,1.00
2022-09-02T01:04:25.137Z,1.10
2022-09-02T01:06:53.944Z,1.00
2022-09-02T01:09:23.188Z,1.37
2022-09-02T01:11:55.472Z,1.03
2022-09-02T01:14:24.043Z,1.20
2022-09-02T01:16:59.857Z,1.10
2022-09-02T01:19:33.120Z,0.93
2022-09-02T01:22:02.263Z,1.30
2022-09-02T01:24:34.624Z,1.10
2022-09-02T01:27:02.449Z,1.20
2022-09-02T01:29:31.662Z,1.03
2022-09-02T01:32:00.371Z,1.23
2022-09-02T01:34:29.072Z,1.27
2022-09-02T01:36:56.904Z,1.27
2022-09-02T01:39:26.145Z,1.37
2022-09-02T01:41:54.016Z,1.10
2022-09-02T01:44:21.899Z,1.23
2022-09-02T01:46:49.789Z,1.27
2022-09-02T01:49:17.746Z,1.27
2022-09-02T01:51:45.690Z,1.20
2022-09-02T01:54:14.387Z,1.10
2022-09-02T01:56:45.302Z,1.30
2022-09-02T01:59:17.721Z,1.20
2022-09-02T02:01:46.801Z,1.40
2022-09-02T02:04:16.070Z,1.53
2022-09-02T02:06:45.172Z,1.40
2022-09-02T02:09:13.722Z,1.10
2022-09-02T02:11:42.173Z,1.30
2022-09-02T02:14:11.624Z,1.20
2022-09-02T02:16:39.633Z,1.40
2022-09-02T02:19:07.637Z,1.47
2022-09-02T02:21:35.612Z,1.40
2022-09-02T02:24:04.006Z,1.40
2022-09-02T02:26:32.907Z,1.03
2022-09-02T02:29:00.890Z,1.23
2022-09-02T02:31:30.226Z,1.10
2022-09-02T02:33:58.153Z,1.13
2022-09-02T02:36:26.281Z,1.53
2022-09-02T02:38:54.269Z,1.30
2022-09-02T02:41:22.458Z,1.23
2022-09-02T02:43:50.453Z,1.20
2022-09-02T02:46:19.505Z,1.20
2022-09-02T02:48:48.841Z,1.20
2022-09-02T02:51:17.936Z,1.10
2022-09-02T02:53:45.891Z,1.10
2022-09-02T02:56:14.266Z,1.20
2022-09-02T02:58:42.306Z,1.30
2022-09-02T03:01:10.254Z,1.20
2022-09-02T03:03:38.255Z,1.20
2022-09-02T03:06:08.155Z,1.20
2022-09-02T03:08:37.434Z,1.43
2022-09-02T03:11:06.969Z,1.30
2022-09-02T03:13:36.172Z,1.10
2022-09-02T03:16:05.867Z,1.10
2022-09-02T03:18:33.925Z,1.30
2022-09-02T03:21:02.500Z,1.20
2022-09-02T03:23:31.770Z,1.13
2022-09-02T03:25:59.685Z,1.07
2022-09-02T03:28:27.822Z,1.30
2022-09-02T03:30:55.855Z,1.20
2022-09-02T03:33:23.872Z,1.40
2022-09-02T03:35:51.768Z,1.20
2022-09-02T03:38:19.840Z,1.17
2022-09-02T03:40:49.279Z,1.33
2022-09-02T03:43:17.518Z,1.17
2022-09-02T03:45:45.537Z,1.30
2022-09-02T03:48:14.193Z,1.40
2022-09-02T03:50:44.733Z,1.33
2022-09-02T03:53:18.137Z,1.23
2022-09-02T03:55:50.824Z,0.97
2022-09-02T03:58:19.200Z,1.20
2022-09-02T04:00:52.353Z,1.50
2022-09-02T04:03:21.204Z,1.30
2022-09-02T04:05:50.197Z,1.30
2022-09-02T04:08:18.136Z,1.23
2022-09-02T04:10:46.144Z,1.20
2022-09-02T04:13:15.472Z,1.43
2022-09-02T04:15:44.933Z,1.50
2022-09-02T04:18:13.273Z,1.40
2022-09-02T04:20:43.125Z,1.30
2022-09-02T04:23:11.326Z,1.30
2022-09-02T04:25:41.533Z,1.20
2022-09-02T04:28:09.833Z,1.10
2022-09-02T04:30:41.026Z,1.10
2022-09-02T04:33:09.016Z,1.30
2022-09-02T04:35:40.841Z,1.60
2022-09-02T04:38:08.896Z,1.20
2022-09-02T04:40:37.084Z,1.53
2022-09-02T04:43:05.081Z,1.00
2022-09-02T04:45:33.007Z,1.07
2022-09-02T04:48:02.532Z,1.23
2022-09-02T04:50:30.454Z,1.40
2022-09-02T04:52:58.373Z,1.70
2022-09-02T04:55:26.300Z,2.27
2022-09-02T04:57:54.252Z,1.70
2022-09-02T05:00:22.357Z,2.23
2022-09-02T05:02:50.331Z,1.93
2022-09-02T05:05:19.845Z,2.23
2022-09-02T05:07:47.782Z,2.33
2022-09-02T05:10:16.004Z,1.70
2022-09-02T05:12:44.942Z,1.77
2022-09-02T05:15:13.998Z,1.60
2022-09-02T05:17:42.649Z,1.57
2022-09-02T05:20:11.346Z,1.60
2022-09-02T05:22:41.093Z,1.60
2022-09-02T05:25:09.806Z,1.50
2022-09-02T05:27:38.606Z,1.30
2022-09-02T05:30:07.972Z,1.50
2022-09-02T05:32:37.921Z,1.47
2022-09-02T05:35:06.888Z,1.60
2022-09-02T05:37:35.902Z,1.37
2022-09-02T05:40:06.266Z,1.40
2022-09-02T05:42:37.065Z,1.50
2022-09-02T05:45:05.774Z,1.60
2022-09-02T05:47:34.875Z,1.40
2022-09-02T05:50:03.159Z,1.30
2022-09-02T05:52:32.326Z,1.53
2022-09-02T05:55:00.446Z,1.63
2022-09-02T05:57:29.698Z,1.57
2022-09-02T05:59:57.620Z,1.53
2022-09-02T06:02:26.596Z,1.30
2022-09-02T06:04:56.704Z,1.60
2022-09-02T06:07:26.567Z,1.30
2022-09-02T06:09:55.237Z,1.40
2022-09-02T06:12:23.561Z,1.20
2022-09-02T06:14:52.895Z,1.37
2022-09-02T06:17:20.822Z,1.23
2022-09-02T06:19:49.054Z,1.30
2022-09-02T06:22:20.779Z,1.30
2022-09-02T06:24:48.707Z,1.20
2022-09-02T06:27:16.642Z,1.13
2022-09-02T06:29:45.912Z,0.93
2022-09-02T06:32:15.247Z,1.07
2022-09-02T06:34:43.211Z,1.00
2022-09-02T06:37:11.142Z,1.00
2022-09-02T06:39:43.779Z,1.03
2022-09-02T06:42:11.785Z,1.20
2022-09-02T06:44:39.969Z,1.07
2022-09-02T06:47:07.968Z,1.00
2022-09-02T06:49:37.380Z,0.80
2022-09-02T06:52:06.119Z,0.87
2022-09-02T06:54:34.066Z,1.00
2022-09-02T06:57:01.953Z,1.00
2022-09-02T06:59:29.897Z,1.30
2022-09-02T07:01:57.994Z,1.10
2022-09-02T07:04:43.572Z,0.83
2022-09-02T07:07:12.914Z,0.83
2022-09-02T07:09:41.112Z,0.80
2022-09-02T07:12:09.608Z,0.90
2022-09-02T07:14:39.377Z,0.83
2022-09-02T07:17:08.281Z,0.80
2022-09-02T07:19:36.782Z,0.90
2022-09-02T07:22:05.198Z,0.80
2022-09-02T07:24:34.503Z,0.60
2022-09-02T07:27:03.037Z,0.80
2022-09-02T07:29:31.148Z,0.70
2022-09-02T07:31:59.497Z,0.83
2022-09-02T07:34:27.622Z,0.73
2022-09-02T07:36:59.069Z,0.70
2022-09-02T07:39:30.621Z,0.70
2022-09-02T07:42:00.513Z,0.80
2022-09-02T07:44:28.701Z,0.60
2022-09-02T07:46:56.614Z,0.60
2022-09-02T07:49:24.741Z,0.70
2022-09-02T07:51:53.393Z,0.77
2022-09-02T07:54:23.721Z,0.80
2022-09-02T07:56:51.804Z,0.80
2022-09-02T07:59:24.666Z,0.80
2022-09-02T08:01:52.886Z,0.90
2022-09-02T08:04:23.292Z,0.70
2022-09-02T08:06:52.781Z,0.77
2022-09-02T08:09:22.366Z,0.80
2022-09-02T08:11:51.836Z,0.80
2022-09-02T08:14:24.388Z,0.77
2022-09-02T08:16:54.591Z,0.70
2022-09-02T08:19:23.160Z,0.70
2022-09-02T08:21:51.327Z,0.90
2022-09-02T08:24:19.451Z,0.70
2022-09-02T08:26:47.400Z,0.87
2022-09-02T08:29:15.470Z,0.90
2022-09-02T08:31:44.821Z,0.70
2022-09-02T08:34:12.780Z,0.70
2022-09-02T08:36:47.596Z,0.63
2022-09-02T08:39:24.924Z,0.77
2022-09-02T08:44:38.913Z,0.83
2022-09-02T08:47:14.240Z,0.90
2022-09-02T08:49:45.200Z,0.87
2022-09-02T08:52:22.290Z,0.87
2022-09-02T08:54:55.482Z,0.80
2022-09-02T08:57:26.657Z,0.80
2022-09-02T08:59:56.790Z,0.97
2022-09-02T09:02:32.766Z,1.10
2022-09-02T09:05:24.733Z,0.97
2022-09-02T09:08:04.574Z,0.70
2022-09-02T09:10:40.813Z,0.80
2022-09-02T09:13:47.969Z,0.80
2022-09-02T09:16:27.739Z,0.87
2022-09-02T09:19:08.834Z,0.80
2022-09-02T09:21:36.990Z,0.80
2022-09-02T09:24:13.167Z,0.83
2022-09-02T09:26:43.298Z,0.80
2022-09-02T09:29:11.319Z,0.67
2022-09-02T09:31:40.484Z,0.80
2022-09-02T09:34:12.848Z,0.70
2022-09-02T09:36:49.816Z,0.80
2022-09-02T09:39:26.990Z,0.60
2022-09-02T09:41:56.477Z,0.77
2022-09-02T09:44:38.369Z,0.93
2022-09-02T09:47:08.599Z,0.87
2022-09-02T09:49:39.100Z,0.80
2022-09-02T09:52:07.189Z,0.90
2022-09-02T09:54:35.110Z,0.80
2022-09-02T09:57:18.207Z,0.73
2022-09-02T09:59:55.911Z,0.70
2022-09-02T10:02:25.840Z,0.70
2022-09-02T10:04:56.749Z,0.83
2022-09-02T10:07:39.739Z,0.60
2022-09-02T10:10:17.420Z,0.80
2022-09-02T10:12:47.380Z,0.80
2022-09-02T10:15:15.613Z,0.67
2022-09-02T10:17:52.358Z,0.70
2022-09-02T10:20:29.941Z,0.80
2022-09-02T10:23:15.809Z,0.80
2022-09-02T10:25:56.709Z,0.80
2022-09-02T10:28:41.905Z,0.70
2022-09-02T10:31:15.356Z,0.90
2022-09-02T10:33:54.321Z,0.77
2022-09-02T10:36:32.848Z,0.80
2022-09-02T10:39:13.097Z,0.70
2022-09-02T10:44:36.621Z,0.87
2022-09-02T10:47:11.499Z,0.80
2022-09-02T10:49:54.180Z,0.70
2022-09-02T10:52:39.410Z,0.80
2022-09-02T10:55:15.115Z,0.90
2022-09-02T10:57:49.253Z,0.90
2022-09-02T11:00:20.258Z,0.80
2022-09-02T11:02:52.488Z,0.70
2022-09-02T11:05:26.497Z,0.60
2022-09-02T11:08:00.989Z,0.77
2022-09-02T11:10:32.529Z,0.67
2022-09-02T11:13:05.947Z,0.67
2022-09-02T11:15:45.286Z,0.80
2022-09-02T11:18:21.561Z,0.70
2022-09-02T11:20:58.148Z,0.70
2022-09-02T11:23:35.586Z,0.70
2022-09-02T11:26:11.020Z,0.60
2022-09-02T11:28:44.461Z,0.60
2022-09-02T11:31:20.118Z,0.80
2022-09-02T11:33:53.675Z,2.47
2022-09-02T11:36:22.121Z,0.70
2022-09-02T11:38:59.214Z,0.80
2022-09-02T11:41:37.379Z,1.00
2022-09-02T11:44:31.316Z,0.70
2022-09-02T11:47:29.207Z,0.70
2022-09-02T11:50:16.932Z,0.90
2022-09-02T11:53:01.185Z,0.90
2022-09-02T11:55:35.355Z,0.60
2022-09-02T11:58:03.586Z,0.60
2022-09-02T12:00:35.854Z,0.70
2022-09-02T12:03:38.869Z,0.60
2022-09-02T12:06:10.636Z,0.50
2022-09-02T12:09:07.565Z,0.80
2022-09-02T12:11:51.141Z,0.80
2022-09-02T12:15:07.586Z,0.60
2022-09-02T12:17:46.941Z,0.77
2022-09-02T12:20:51.131Z,0.60
2022-09-02T12:23:56.942Z,0.80
2022-09-02T12:26:26.799Z,0.90
2022-09-02T12:29:12.146Z,0.70
2022-09-02T12:31:43.491Z,0.63
2022-09-02T12:34:46.869Z,0.63
2022-09-02T12:37:48.729Z,0.70
2022-09-02T12:40:20.905Z,0.50
2022-09-02T12:42:49.334Z,0.70
2022-09-02T12:45:29.330Z,0.60
2022-09-02T12:48:02.913Z,0.77
2022-09-02T12:50:36.052Z,0.60
2022-09-02T12:53:29.779Z,0.60
2022-09-02T12:56:01.657Z,0.50
2022-09-02T12:58:34.277Z,0.50
2022-09-02T13:01:15.600Z,0.80
2022-09-02T13:04:08.668Z,0.70
2022-09-02T13:06:52.793Z,0.73
2022-09-02T13:09:38.566Z,0.60
2022-09-02T13:12:57.206Z,0.70
2022-09-02T13:15:36.996Z,0.67
2022-09-02T13:18:46.897Z,0.60
2022-09-02T13:21:47.041Z,0.50
2022-09-02T13:24:50.623Z,0.50
2022-09-02T13:27:55.071Z,0.90
2022-09-02T13:30:50.844Z,0.57
2022-09-02T13:33:18.891Z,0.70
2022-09-02T13:35:54.342Z,0.60
2022-09-02T13:38:25.355Z,0.70
2022-09-02T13:40:53.598Z,0.60
2022-09-02T13:43:23.942Z,0.80
2022-09-02T13:45:53.456Z,0.47
2022-09-02T13:48:24.330Z,0.60
2022-09-02T13:50:55.095Z,0.50
2022-09-02T13:53:45.596Z,0.43
2022-09-02T13:56:17.716Z,0.60
2022-09-02T13:58:48.466Z,0.50
2022-09-02T14:01:23.269Z,0.70
2022-09-02T14:03:54.080Z,0.70
2022-09-02T14:06:25.322Z,0.60
2022-09-02T14:08:58.416Z,0.60
2022-09-02T14:11:27.257Z,0.60
2022-09-02T14:13:56.208Z,0.63
2022-09-02T14:16:29.512Z,0.80
2022-09-02T14:19:24.373Z,0.70
2022-09-02T14:21:56.006Z,0.60
2022-09-02T14:24:26.390Z,0.60
2022-09-02T14:26:55.840Z,0.60
2022-09-02T14:29:24.851Z,0.57
2022-09-02T14:32:12.948Z,0.50
2022-09-02T14:34:42.544Z,0.60
2022-09-02T14:37:23.605Z,0.77
2022-09-02T14:40:09.227Z,1.00
2022-09-02T14:42:46.473Z,0.80
2022-09-02T14:45:15.033Z,0.60
2022-09-02T14:47:43.513Z,0.60
2022-09-02T14:50:15.334Z,0.80
2022-09-02T14:52:50.283Z,0.67
2022-09-02T14:55:54.081Z,0.70
2022-09-02T14:58:26.829Z,0.60
2022-09-02T15:00:57.544Z,0.90
2022-09-02T15:03:26.057Z,0.80
2022-09-02T15:05:54.286Z,0.73
2022-09-02T15:08:23.719Z,0.87
2022-09-02T15:10:54.141Z,0.60
2022-09-02T15:13:29.142Z,0.50
2022-09-02T15:15:58.985Z,0.70
2022-09-02T15:18:26.906Z,0.80
2022-09-02T15:20:55.123Z,0.60
2022-09-02T15:23:24.545Z,0.70
2022-09-02T15:25:54.762Z,0.60
2022-09-02T15:28:22.730Z,0.50
2022-09-02T15:30:57.783Z,0.73
2022-09-02T15:33:25.838Z,0.70
2022-09-02T15:35:53.881Z,0.80
2022-09-02T15:38:21.940Z,0.67
2022-09-02T15:40:51.209Z,0.50
2022-09-02T15:43:21.217Z,0.60
2022-09-02T15:45:49.306Z,0.50
2022-09-02T15:48:17.297Z,0.70
2022-09-02T15:50:46.550Z,0.60
2022-09-02T15:53:15.622Z,0.60
2022-09-02T15:55:43.626Z,0.50
2022-09-02T15:58:12.853Z,0.60
2022-09-02T16:00:40.746Z,0.63
2022-09-02T16:03:11.697Z,0.60
2022-09-02T16:05:39.634Z,0.60
2022-09-02T16:08:07.541Z,0.80
2022-09-02T16:10:37.516Z,0.50
2022-09-02T16:13:05.581Z,0.60
2022-09-02T16:15:34.929Z,0.70
2022-09-02T16:18:02.861Z,0.50
2022-09-02T16:20:30.736Z,0.60
2022-09-02T16:22:58.662Z,0.60
2022-09-02T16:25:26.641Z,0.60
2022-09-02T16:27:55.740Z,0.50
2022-09-02T16:30:24.218Z,0.60
2022-09-02T16:32:53.468Z,0.80
2022-09-02T16:35:21.612Z,0.70
2022-09-02T16:37:50.261Z,0.70
2022-09-02T16:40:21.521Z,0.70
2022-09-02T16:42:50.059Z,0.67
2022-09-02T16:45:18.023Z,0.60
2022-09-02T16:47:45.962Z,0.53
2022-09-02T16:50:15.472Z,0.70
2022-09-02T16:52:43.449Z,0.67
2022-09-02T16:55:11.542Z,0.60
2022-09-02T16:57:39.466Z,0.63
2022-09-02T17:00:08.757Z,0.60
2022-09-02T17:02:36.692Z,0.60
2022-09-02T17:05:06.950Z,0.60
2022-09-02T17:07:36.250Z,0.40
2022-09-02T17:10:04.406Z,0.60
2022-09-02T17:12:32.330Z,0.60
2022-09-02T17:15:00.239Z,0.70
2022-09-02T17:17:28.173Z,0.57
2022-09-02T17:19:56.113Z,0.53
2022-09-02T17:22:24.014Z,0.50
2022-09-02T17:24:57.041Z,0.50
2022-09-02T17:27:24.962Z,0.60
2022-09-02T17:29:53.013Z,0.63
2022-09-02T17:32:21.212Z,0.60
2022-09-02T17:34:50.890Z,0.70
2022-09-02T17:37:18.949Z,0.50
2022-09-02T17:39:46.964Z,0.70
2022-09-02T17:42:15.794Z,0.60
2022-09-02T17:44:43.794Z,0.60
2022-09-02T17:47:14.141Z,0.60
2022-09-02T17:49:44.079Z,0.60
2022-09-02T17:52:13.677Z,0.67
2022-09-02T17:54:42.473Z,0.70
2022-09-02T17:57:23.636Z,0.60
2022-09-02T18:00:07.397Z,0.60
2022-09-02T18:02:57.923Z,0.80
2022-09-02T18:05:29.688Z,0.77
2022-09-02T18:08:02.738Z,0.70
2022-09-02T18:10:35.351Z,0.50
2022-09-02T18:13:07.946Z,0.60
2022-09-02T18:15:46.206Z,0.73
2022-09-02T18:18:16.841Z,0.50
2022-09-02T18:20:49.116Z,0.53
2022-09-02T18:23:32.805Z,0.70
2022-09-02T18:26:12.211Z,0.70
2022-09-02T18:28:56.465Z,0.70
2022-09-02T18:31:36.274Z,0.60
2022-09-02T18:34:20.967Z,0.77
2022-09-02T18:36:56.554Z,0.70
2022-09-02T18:39:49.633Z,0.70
2022-09-02T18:42:25.801Z,0.70
2022-09-02T18:45:04.644Z,0.80
2022-09-02T18:47:36.524Z,0.70
2022-09-02T18:50:06.725Z,0.80
2022-09-02T18:52:37.225Z,0.90
2022-09-02T18:55:11.390Z,1.00
2022-09-02T18:57:46.089Z,0.80
2022-09-02T19:00:16.410Z,0.80
2022-09-02T19:02:49.014Z,0.70
2022-09-02T19:05:20.636Z,0.83
2022-09-02T19:08:12.442Z,0.83
2022-09-02T19:10:40.742Z,0.80
2022-09-02T19:13:08.781Z,0.90
2022-09-02T19:15:39.373Z,0.90
2022-09-02T19:18:07.410Z,0.90
2022-09-02T19:20:37.316Z,0.90
2022-09-02T19:23:07.981Z,1.00
2022-09-02T19:25:38.753Z,0.93
2022-09-02T19:28:07.005Z,0.93
2022-09-02T19:30:37.437Z,0.87
2022-09-02T19:33:09.324Z,0.90
2022-09-02T19:35:38.382Z,0.93
2022-09-02T19:38:06.306Z,0.87
2022-09-02T19:40:36.370Z,1.10
2022-09-02T19:43:07.385Z,1.03
2022-09-02T19:45:37.431Z,1.00
2022-09-02T19:48:11.044Z,1.10
2022-09-02T19:50:41.925Z,1.00
2022-09-02T19:53:12.473Z,0.97
2022-09-02T19:55:40.385Z,0.90
2022-09-02T19:58:08.736Z,0.97
2022-09-02T20:00:36.755Z,1.00
2022-09-02T20:03:04.801Z,0.90
2022-09-02T20:05:35.629Z,0.80
2022-09-02T20:08:03.982Z,0.90
2022-09-02T20:10:31.932Z,1.10
2022-09-02T20:12:59.972Z,0.90
2022-09-02T20:15:27.884Z,0.90
2022-09-02T20:18:09.062Z,0.90
2022-09-02T20:20:38.898Z,0.90
2022-09-02T20:23:08.329Z,0.83
2022-09-02T20:25:54.879Z,0.80
2022-09-02T20:28:26.737Z,0.90
2022-09-02T20:31:08.264Z,1.00
2022-09-02T20:33:42.158Z,0.90
2022-09-02T20:36:20.150Z,1.07
2022-09-02T20:39:05.447Z,1.00
2022-09-02T20:41:40.184Z,1.10
2022-09-02T20:44:35.164Z,1.00
2022-09-02T20:47:20.555Z,1.00
2022-09-02T20:50:07.461Z,0.90
2022-09-02T20:52:52.528Z,0.90
2022-09-02T20:55:25.089Z,0.90
2022-09-02T20:58:19.256Z,0.87
2022-09-02T21:01:01.183Z,0.90
2022-09-02T21:03:40.956Z,1.10
2022-09-02T21:06:11.753Z,0.97
2022-09-02T21:09:00.813Z,0.97
2022-09-02T21:11:37.826Z,1.20
2022-09-02T21:14:09.859Z,0.90
2022-09-02T21:16:40.714Z,1.00
2022-09-02T21:19:15.926Z,1.13
2022-09-02T21:21:50.041Z,1.20
2022-09-02T21:24:24.030Z,0.90
2022-09-02T21:26:58.636Z,1.00
2022-09-02T21:29:32.925Z,0.90
2022-09-02T21:32:05.708Z,0.80
2022-09-02T21:34:38.082Z,0.77
2022-09-02T21:37:09.066Z,0.90
2022-09-02T21:39:43.955Z,0.80
2022-09-02T21:42:24.656Z,1.00
2022-09-02T21:45:06.342Z,0.90
2022-09-02T21:47:39.582Z,1.00
2022-09-02T21:50:16.565Z,0.93
2022-09-02T21:53:04.516Z,0.90
2022-09-02T21:55:53.400Z,0.97
2022-09-02T21:58:39.955Z,1.10
2022-09-02T22:01:18.896Z,1.00
2022-09-02T22:03:51.317Z,1.00
2022-09-02T22:06:25.518Z,0.90
2022-09-02T22:09:02.979Z,0.80
2022-09-02T22:11:39.045Z,0.93
2022-09-02T22:14:14.406Z,0.93
2022-09-02T22:16:53.646Z,1.10
2022-09-02T22:19:26.045Z,0.80
2022-09-02T22:21:59.705Z,0.83
2022-09-02T22:24:31.102Z,0.83
2022-09-02T22:27:06.236Z,0.87
2022-09-02T22:29:38.348Z,0.90
2022-09-02T22:32:09.696Z,0.80
2022-09-02T22:34:44.253Z,0.90
2022-09-02T22:37:18.644Z,1.10
2022-09-02T22:39:51.485Z,0.87
2022-09-02T22:42:28.187Z,0.90
2022-09-02T22:45:21.425Z,0.80
2022-09-02T22:48:12.481Z,0.97
2022-09-02T22:51:02.325Z,1.00
2022-09-02T22:53:30.776Z,0.80
2022-09-02T22:56:03.545Z,0.90
2022-09-02T22:58:57.400Z,1.00
2022-09-02T23:01:35.363Z,0.80
2022-09-02T23:04:19.495Z,0.90
2022-09-02T23:06:47.417Z,0.97
2022-09-02T23:09:18.382Z,1.00
2022-09-02T23:11:56.694Z,0.87
2022-09-02T23:14:38.596Z,1.00
2022-09-02T23:17:23.326Z,0.83
2022-09-02T23:20:02.453Z,0.70
2022-09-02T23:22:41.982Z,0.80
2022-09-02T23:25:36.010Z,0.80
2022-09-02T23:28:15.003Z,1.00
2022-09-02T23:30:53.616Z,0.80
2022-09-02T23:33:34.892Z,1.00
2022-09-02T23:36:13.049Z,0.83
2022-09-02T23:38:58.823Z,1.00
2022-09-02T23:41:28.092Z,1.00
2022-09-02T23:43:56.669Z,0.93
2022-09-02T23:46:38.212Z,0.83
2022-09-02T23:49:15.242Z,0.83
2022-09-02T23:51:53.000Z,0.83
2022-09-02T23:54:36.629Z,0.90
2022-09-02T23:57:18.202Z,0.97
